.
WxDataArchive / Data Records for 2007-02-05
2007-02-04 February 2007 2007-02-06

Data Records for Monday, 05 February 2007

Time	Temp	Chill	HIndex	Humid	Dewpt	 Wind 	HiWind	WindDir	Rain 	Barom 
-----	----	-----	------	-----	-----	------	------	-------	-----	----- 
00:00	-1.0	-1.0	-1.0	57	-12.5	1	3	248	0.00	30.363 
00:05	-1.0	-1.0	-1.0	57	-12.5	1	4	270	0.00	30.363 
00:10	-1.2	-1.2	-1.2	57	-12.7	1	5	270	0.00	30.363 
00:15	-1.2	-1.2	-1.2	58	-12.4	1	4	270	0.00	30.367 
00:20	-1.2	-1.2	-1.2	58	-12.4	1	4	270	0.00	30.367 
00:25	-1.4	-1.4	-1.4	58	-12.5	1	3	270	0.00	30.367 
00:30	-1.4	-1.4	-1.4	58	-12.5	1	5	270	0.00	30.366 
00:35	-1.4	-1.4	-1.4	58	-12.5	1	3	248	0.00	30.366 
00:40	-1.6	-1.6	-1.6	59	-12.4	1	5	270	0.00	30.366 
00:45	-1.6	-1.6	-1.6	59	-12.4	1	3	248	0.00	30.374 
00:50	-1.8	-1.8	-1.8	59	-12.6	0	1	270	0.00	30.374 
00:55	-1.8	-1.8	-1.8	59	-12.6	1	4	270	0.00	30.374 
01:00	-1.8	-1.8	-1.8	59	-12.6	1	6	270	0.00	30.378 
01:05	-1.8	-1.8	-1.8	60	-12.2	1	5	292	0.00	30.378 
01:10	-1.8	-1.8	-1.8	60	-12.2	1	4	270	0.00	30.378 
01:15	-1.8	-1.8	-1.8	60	-12.2	1	4	270	0.00	30.376 
01:20	-1.8	-1.8	-1.8	60	-12.2	1	5	270	0.00	30.376 
01:25	-2.0	-2.0	-2.0	60	-12.4	1	4	270	0.00	30.376 
01:30	-2.0	-2.0	-2.0	60	-12.4	1	4	248	0.00	30.378 
01:35	-2.2	-2.2	-2.2	60	-12.6	1	4	270	0.00	30.378 
01:40	-2.2	-2.2	-2.2	60	-12.6	1	3	270	0.00	30.378 
01:45	-2.2	-2.2	-2.2	60	-12.6	1	5	270	0.00	30.385 
01:50	-2.4	-2.4	-2.4	61	-12.5	1	6	248	0.00	30.385 
01:55	-2.4	-2.4	-2.4	61	-12.5	1	7	270	0.00	30.385 
02:00	-2.4	-2.4	-2.4	61	-12.5	1	4	270	0.00	30.388 
02:05	-2.4	-2.4	-2.4	61	-12.5	1	5	248	0.00	30.388 
02:10	-2.6	-2.6	-2.6	61	-12.7	1	3	248	0.00	30.388 
02:15	-2.6	-2.6	-2.6	61	-12.7	1	6	248	0.00	30.391 
02:20	-2.6	-2.6	-2.6	61	-12.7	1	10	270	0.00	30.391 
02:25	-2.6	-2.6	-2.6	61	-12.7	1	5	248	0.00	30.391 
02:30	-2.8	-2.8	-2.8	62	-12.5	1	5	248	0.00	30.393 
02:35	-2.8	-2.8	-2.8	62	-12.5	1	4	248	0.00	30.393 
02:40	-2.8	-2.8	-2.8	62	-12.5	1	5	248	0.00	30.393 
02:45	-2.8	-2.8	-2.8	62	-12.5	1	6	248	0.00	30.405 
02:50	-2.8	-2.8	-2.8	62	-12.5	2	7	270	0.00	30.405 
02:55	-3.1	-3.1	-3.1	62	-12.8	1	3	248	0.00	30.405 
03:00	-3.1	-3.1	-3.1	62	-12.8	1	4	270	0.00	30.408 
03:05	-3.1	-3.1	-3.1	62	-12.8	1	6	248	0.00	30.408 
03:10	-3.1	-3.1	-3.1	62	-12.8	2	7	248	0.00	30.408 
03:15	-3.1	-3.1	-3.1	62	-12.8	2	7	270	0.00	30.414 
03:20	-3.3	-3.3	-3.3	62	-13.0	2	10	270	0.00	30.414 
03:25	-3.3	-3.3	-3.3	62	-13.0	2	7	270	0.00	30.414 
03:30	-3.3	-3.3	-3.3	62	-13.0	1	5	270	0.00	30.417 
03:35	-3.3	-3.3	-3.3	62	-13.0	1	6	248	0.00	30.417 
03:40	-3.5	-3.5	-3.5	62	-13.2	2	5	270	0.00	30.417 
03:45	-3.5	-3.5	-3.5	62	-13.2	1	4	270	0.00	30.421 
03:50	-3.5	-3.5	-3.5	62	-13.2	1	6	270	0.00	30.421 
03:55	-3.5	-3.5	-3.5	62	-13.2	2	5	270	0.00	30.421 
04:00	-3.7	-3.7	-3.7	63	-13.1	1	4	248	0.00	30.423 
04:05	-3.7	-3.7	-3.7	63	-13.1	2	6	270	0.00	30.423 
04:10	-3.7	-3.7	-3.7	63	-13.1	1	7	248	0.00	30.423 
04:15	-3.7	-3.7	-3.7	63	-13.1	1	7	248	0.00	30.427 
04:20	-3.9	-3.9	-3.9	63	-13.3	2	9	270	0.00	30.427 
04:25	-3.9	-3.9	-3.9	63	-13.3	2	8	270	0.00	30.427 
04:30	-3.9	-3.9	-3.9	63	-13.3	1	5	270	0.00	30.428 
04:35	-3.9	-3.9	-3.9	63	-13.3	2	5	248	0.00	30.428 
04:40	-3.9	-3.9	-3.9	63	-13.3	1	5	248	0.00	30.428 
04:45	-4.1	-4.1	-4.1	63	-13.5	2	9	270	0.00	30.432 
04:50	-4.1	-4.1	-4.1	63	-13.5	2	5	270	0.00	30.432 
04:55	-4.1	-4.1	-4.1	63	-13.5	2	6	270	0.00	30.432 
05:00	-4.1	-4.1	-4.1	63	-13.5	1	11	270	0.00	30.438 
05:05	-4.3	-4.3	-4.3	63	-13.7	1	7	248	0.00	30.438 
05:10	-4.3	-4.3	-4.3	63	-13.7	2	9	248	0.00	30.438 
05:15	-4.3	-4.3	-4.3	63	-13.7	1	6	270	0.00	30.439 
05:20	-4.3	-4.3	-4.3	64	-13.3	1	6	248	0.00	30.439 
05:25	-4.3	-4.3	-4.3	64	-13.3	1	10	270	0.00	30.439 
05:30	-4.3	-4.3	-4.3	64	-13.3	1	5	270	0.00	30.442 
05:35	-4.3	-4.3	-4.3	64	-13.3	1	5	270	0.00	30.442 
05:40	-4.3	-4.3	-4.3	64	-13.3	1	6	270	0.00	30.442 
05:45	-4.3	-4.3	-4.3	64	-13.3	3	13	270	0.00	30.447 
05:50	-4.3	-4.3	-4.3	64	-13.3	1	5	270	0.00	30.447 
05:55	-4.6	-4.6	-4.6	64	-13.6	1	3	270	0.00	30.447 
06:00	-4.6	-4.6	-4.6	64	-13.6	1	5	270	0.00	30.454 
06:05	-4.6	-4.6	-4.6	64	-13.6	2	5	248	0.00	30.454 
06:10	-4.6	-4.6	-4.6	64	-13.6	1	5	248	0.00	30.454 
06:15	-4.6	-4.6	-4.6	64	-13.6	1	4	248	0.00	30.460 
06:20	-4.6	-4.6	-4.6	64	-13.6	2	7	248	0.00	30.460 
06:25	-4.6	-4.6	-4.6	64	-13.6	1	5	270	0.00	30.460 
06:30	-4.6	-4.6	-4.6	64	-13.6	2	5	248	0.00	30.464 
06:35	-4.6	-4.6	-4.6	63	-13.9	3	8	248	0.00	30.464 
06:40	-4.8	-4.8	-4.8	63	-14.1	1	6	248	0.00	30.464 
06:45	-4.8	-4.8	-4.8	63	-14.1	2	6	248	0.00	30.471 
06:50	-4.8	-4.8	-4.8	63	-14.1	1	7	248	0.00	30.471 
06:55	-5.0	-5.0	-5.0	63	-14.3	1	5	248	0.00	30.471 
07:00	-5.0	-5.0	-5.0	63	-14.3	2	9	248	0.00	30.473 
07:05	-5.0	-5.0	-5.0	63	-14.3	2	7	248	0.00	30.473 
07:10	-5.0	-5.0	-5.0	63	-14.3	1	6	248	0.00	30.473 
07:15	-5.2	-5.2	-5.2	63	-14.5	1	5	248	0.00	30.475 
07:20	-5.2	-5.2	-5.2	63	-14.5	1	5	270	0.00	30.475 
07:25	-5.2	-5.2	-5.2	63	-14.5	2	7	248	0.00	30.475 
07:30	-5.2	-5.2	-5.2	63	-14.5	1	5	270	0.00	30.481 
07:35	-5.4	-5.4	-5.4	63	-14.7	2	9	270	0.00	30.481 
07:40	-5.4	-5.4	-5.4	63	-14.7	1	4	270	0.00	30.481 
07:45	-5.4	-5.4	-5.4	63	-14.7	1	6	270	0.00	30.489 
07:50	-5.4	-5.4	-5.4	62	-15.0	1	4	270	0.00	30.489 
07:55	-5.6	-5.6	-5.6	62	-15.2	1	7	248	0.00	30.489 
08:00	-5.6	-5.6	-5.6	62	-15.2	1	6	270	0.00	30.494 
08:05	-5.6	-5.6	-5.6	62	-15.2	2	5	270	0.00	30.494 
08:10	-5.6	-5.6	-5.6	62	-15.2	2	13	270	0.00	30.494 
08:15	-5.4	-5.4	-5.4	62	-15.0	3	7	270	0.00	30.499 
08:20	-5.4	-5.4	-5.4	62	-15.0	2	5	248	0.00	30.499 
08:25	-5.2	-5.2	-5.2	61	-15.1	1	5	270	0.00	30.499 
08:30	-5.2	-5.2	-5.2	61	-15.1	2	5	270	0.00	30.499 
08:35	-5.0	-5.0	-5.0	60	-15.3	2	7	270	0.00	30.499 
08:40	-4.8	-4.8	-4.8	60	-15.1	2	10	270	0.00	30.499 
08:45	-4.6	-4.6	-4.6	59	-15.2	1	4	270	0.00	30.504 
08:50	-4.3	-4.3	-4.3	59	-14.9	3	11	270	0.00	30.504 
08:55	-4.1	-4.1	-4.1	59	-14.8	2	6	270	0.00	30.504 
09:00	-4.1	-4.1	-4.1	58	-15.1	3	9	270	0.00	30.506 
09:05	-3.9	-3.9	-3.9	58	-14.9	3	8	270	0.00	30.506 
09:10	-3.9	-3.9	-3.9	58	-14.9	3	7	270	0.00	30.506 
09:15	-3.7	-3.7	-3.7	58	-14.7	3	9	270	0.00	30.509 
09:20	-3.5	-3.5	-3.5	57	-14.9	3	6	270	0.00	30.509 
09:25	-3.3	-3.3	-3.3	57	-14.7	3	9	270	0.00	30.509 
09:30	-3.3	-3.3	-3.3	57	-14.7	3	5	270	0.00	30.518 
09:35	-2.8	-2.8	-2.8	57	-14.2	3	6	270	0.00	30.518 
09:40	-2.4	-2.4	-2.4	57	-13.8	2	8	270	0.00	30.518 
09:45	-2.2	-2.2	-2.2	57	-13.6	3	9	270	0.00	30.521 
09:50	-2.0	-2.0	-2.0	57	-13.5	3	6	270	0.00	30.521 
09:55	-1.4	-1.4	-1.4	57	-12.9	1	4	292	0.00	30.521 
10:00	-1.0	-1.0	-1.0	55	-13.2	2	6	270	0.00	30.522 
10:05	-1.0	-1.0	-1.0	55	-13.2	3	6	270	0.00	30.522 
10:10	-0.8	-0.8	-0.8	56	-12.7	3	9	248	0.00	30.522 
10:15	-0.8	-9.8	-0.8	54	-13.4	4	7	270	0.00	30.529 
10:20	-0.8	-0.8	-0.8	54	-13.4	3	10	270	0.00	30.529 
10:25	-0.6	-0.6	-0.6	54	-13.2	3	10	270	0.00	30.529 
10:30	-0.4	-9.3	-0.4	56	-12.3	4	10	270	0.00	30.534 
10:35	-0.2	-0.2	-0.2	55	-12.5	3	10	270	0.00	30.534 
10:40	0.1	0.1	0.1	54	-12.6	3	9	270	0.00	30.534 
10:45	0.1	0.1	0.1	54	-12.6	3	9	270	0.00	30.537 
10:50	0.1	0.1	0.1	55	-12.2	3	10	270	0.00	30.537 
10:55	0.3	0.3	0.3	54	-12.4	3	7	270	0.00	30.537 
11:00	0.9	0.9	0.9	55	-11.4	2	4	270	0.00	30.543 
11:05	1.1	1.1	1.1	54	-11.6	3	8	270	0.00	30.543 
11:10	1.1	1.1	1.1	54	-11.6	3	8	270	0.00	30.543 
11:15	1.3	1.3	1.3	54	-11.4	2	5	270	0.00	30.548 
11:20	1.1	-7.6	1.1	54	-11.6	4	11	270	0.00	30.548 
11:25	1.5	1.5	1.5	56	-10.5	1	4	270	0.00	30.548 
11:30	1.7	1.7	1.7	54	-11.1	2	10	270	0.00	30.551 
11:35	1.8	1.8	1.8	53	-11.3	3	11	270	0.00	30.551 
11:40	1.7	1.7	1.7	55	-10.7	3	10	270	0.00	30.551 
11:45	1.8	1.8	1.8	55	-10.6	3	9	270	0.00	30.552 
11:50	2.2	2.2	2.2	56	-9.9	2	7	270	0.00	30.552 
11:55	2.4	2.4	2.4	54	-10.4	2	8	270	0.00	30.552 
12:00	2.2	2.2	2.2	54	-10.6	3	11	270	0.00	30.558 
12:05	2.2	-6.3	2.2	55	-10.2	4	11	270	0.00	30.558 
12:10	2.0	2.0	2.0	54	-10.8	3	6	270	0.00	30.558 
12:15	2.4	2.4	2.4	56	-9.7	3	13	270	0.00	30.553 
12:20	2.8	2.8	2.8	56	-9.3	2	9	270	0.00	30.553 
12:25	2.6	2.6	2.6	54	-10.2	3	10	270	0.00	30.553 
12:30	2.8	2.8	2.8	55	-9.7	3	7	270	0.00	30.549 
12:35	3.0	3.0	3.0	55	-9.5	3	9	270	0.00	30.549 
12:40	3.4	3.4	3.4	55	-9.1	3	6	270	0.00	30.549 
12:45	3.2	3.2	3.2	55	-9.3	3	14	270	0.00	30.539 
12:50	3.4	3.4	3.4	54	-9.5	3	7	270	0.00	30.539 
12:55	3.2	3.2	3.2	55	-9.3	3	10	270	0.00	30.539 
13:00	3.2	-5.2	3.2	54	-9.7	4	13	270	0.00	30.538 
13:05	3.5	3.5	3.5	55	-9.0	3	9	270	0.00	30.538 
13:10	3.4	3.4	3.4	54	-9.5	3	10	270	0.00	30.538 
13:15	3.7	3.7	3.7	56	-8.4	3	10	270	0.00	30.536 
13:20	4.1	4.1	4.1	56	-8.1	2	9	270	0.00	30.536 
13:25	4.1	-4.2	4.1	54	-8.8	4	10	248	0.00	30.536 
13:30	4.1	4.1	4.1	55	-8.4	3	14	270	0.00	30.533 
13:35	4.3	4.3	4.3	54	-8.6	3	10	270	0.00	30.533 
13:40	4.5	4.5	4.5	54	-8.4	3	7	270	0.00	30.533 
13:45	4.1	-5.7	4.1	53	-9.2	5	14	248	0.00	30.531 
13:50	4.1	4.1	4.1	54	-8.8	3	10	270	0.00	30.531 
13:55	4.7	4.7	4.7	55	-7.9	2	6	270	0.00	30.531 
14:00	4.8	4.8	4.8	54	-8.2	2	7	270	0.00	30.531 
14:05	4.8	4.8	4.8	53	-8.5	3	12	270	0.00	30.531 
14:10	5.2	5.2	5.2	54	-7.8	2	10	270	0.00	30.531 
14:15	5.6	5.6	5.6	53	-7.8	2	6	270	0.00	30.518 
14:20	5.6	5.6	5.6	53	-7.8	2	5	270	0.00	30.518 
14:25	5.4	5.4	5.4	52	-8.4	2	7	270	0.00	30.518 
14:30	5.4	5.4	5.4	53	-8.0	2	9	270	0.00	30.517 
14:35	5.8	5.8	5.8	52	-8.0	2	6	270	0.00	30.517 
14:40	5.6	5.6	5.6	52	-8.2	2	7	270	0.00	30.517 
14:45	5.8	5.8	5.8	52	-8.0	3	9	270	0.00	30.514 
14:50	5.8	5.8	5.8	51	-8.4	2	9	270	0.00	30.514 
14:55	6.1	6.1	6.1	51	-8.1	2	6	270	0.00	30.514 
15:00	6.0	6.0	6.0	51	-8.2	3	9	270	0.00	30.515 
15:05	6.1	6.1	6.1	51	-8.1	2	9	270	0.00	30.515 
15:10	5.6	5.6	5.6	50	-9.0	3	12	270	0.00	30.515 
15:15	5.8	5.8	5.8	52	-8.0	2	7	270	0.00	30.514 
15:20	5.8	5.8	5.8	52	-8.0	3	13	270	0.00	30.514 
15:25	6.1	6.1	6.1	51	-8.1	2	11	270	0.00	30.514 
15:30	6.5	6.5	6.5	50	-8.1	2	7	270	0.00	30.514 
15:35	6.3	6.3	6.3	50	-8.3	3	11	270	0.00	30.514 
15:40	6.3	6.3	6.3	50	-8.3	3	11	270	0.00	30.514 
15:45	6.3	6.3	6.3	50	-8.3	2	10	270	0.00	30.517 
15:50	6.1	6.1	6.1	50	-8.5	3	7	270	0.00	30.517 
15:55	6.1	6.1	6.1	50	-8.5	3	7	270	0.00	30.517 
16:00	6.3	6.3	6.3	49	-8.7	2	6	248	0.00	30.517 
16:05	6.1	-1.8	6.1	50	-8.5	4	10	270	0.00	30.517 
16:10	5.8	5.8	5.8	49	-9.2	3	9	270	0.00	30.517 
16:15	5.4	5.4	5.4	50	-9.2	2	5	270	0.00	30.520 
16:20	5.6	5.6	5.6	50	-9.0	3	6	270	0.00	30.520 
16:25	5.6	5.6	5.6	51	-8.6	2	5	248	0.00	30.520 
16:30	5.4	5.4	5.4	51	-8.8	3	6	270	0.00	30.525 
16:35	5.2	5.2	5.2	50	-9.3	2	8	270	0.00	30.525 
16:40	5.2	5.2	5.2	50	-9.3	3	11	270	0.00	30.525 
16:45	5.0	5.0	5.0	50	-9.5	2	10	270	0.00	30.526 
16:50	5.0	5.0	5.0	50	-9.5	2	9	270	0.00	30.526 
16:55	4.7	4.7	4.7	51	-9.4	2	5	270	0.00	30.526 
17:00	4.7	4.7	4.7	50	-9.8	2	6	248	0.00	30.526 
17:05	4.7	4.7	4.7	50	-9.8	2	6	270	0.00	30.526 
17:10	4.5	4.5	4.5	50	-10.0	1	7	270	0.00	30.526 
17:15	4.3	4.3	4.3	50	-10.2	2	8	248	0.00	30.530 
17:20	4.3	4.3	4.3	50	-10.2	3	7	248	0.00	30.530 
17:25	4.1	4.1	4.1	51	-10.0	1	4	248	0.00	30.530 
17:30	3.9	3.9	3.9	51	-10.1	2	9	270	0.00	30.529 
17:35	3.5	3.5	3.5	50	-10.9	2	7	248	0.00	30.529 
17:40	3.4	3.4	3.4	51	-10.6	1	4	248	0.00	30.529 
17:45	3.2	3.2	3.2	51	-10.8	3	9	270	0.00	30.532 
17:50	3.0	3.0	3.0	51	-11.0	1	4	270	0.00	30.532 
17:55	2.6	2.6	2.6	51	-11.4	1	7	270	0.00	30.532 
18:00	2.4	2.4	2.4	51	-11.5	1	4	270	0.00	30.528 
18:05	2.2	2.2	2.2	51	-11.7	1	5	248	0.00	30.528 
18:10	2.2	2.2	2.2	52	-11.3	1	5	248	0.00	30.528 
18:15	2.0	2.0	2.0	51	-11.9	2	6	248	0.00	30.528 
18:20	2.0	2.0	2.0	50	-12.3	2	6	248	0.00	30.528 
18:25	1.8	1.8	1.8	50	-12.5	1	5	248	0.00	30.528 
18:30	1.7	1.7	1.7	50	-12.6	1	5	248	0.00	30.530 
18:35	1.7	1.7	1.7	50	-12.6	1	6	270	0.00	30.530 
18:40	1.5	1.5	1.5	51	-12.4	1	3	248	0.00	30.530 
18:45	1.3	1.3	1.3	51	-12.6	0	2	248	0.00	30.533 
18:50	1.3	1.3	1.3	52	-12.2	1	6	248	0.00	30.533 
18:55	1.1	1.1	1.1	52	-12.4	1	3	248	0.00	30.533 
19:00	1.1	1.1	1.1	52	-12.4	0	2	248	0.00	30.535 
19:05	0.9	0.9	0.9	53	-12.2	1	4	248	0.00	30.535 
19:10	0.9	0.9	0.9	54	-11.8	0	2	248	0.00	30.535 
19:15	0.7	0.7	0.7	54	-12.0	0	3	248	0.00	30.534 
19:20	0.7	0.7	0.7	54	-12.0	1	4	248	0.00	30.534 
19:25	0.7	0.7	0.7	55	-11.6	1	5	248	0.00	30.534 
19:30	0.7	0.7	0.7	55	-11.6	0	4	248	0.00	30.534 
19:35	0.5	0.5	0.5	55	-11.8	0	3	248	0.00	30.534 
19:40	0.5	0.5	0.5	56	-11.5	0	3	248	0.00	30.534 
19:45	0.5	0.5	0.5	56	-11.5	1	6	248	0.00	30.536 
19:50	0.5	0.5	0.5	56	-11.5	0	3	248	0.00	30.536 
19:55	0.5	0.5	0.5	56	-11.5	0	5	248	0.00	30.536 
20:00	0.5	0.5	0.5	56	-11.5	1	4	248	0.00	30.534 
20:05	0.3	0.3	0.3	56	-11.6	1	3	248	0.00	30.534 
20:10	0.3	0.3	0.3	57	-11.3	0	2	248	0.00	30.534 
20:15	0.1	0.1	0.1	57	-11.5	0	4	248	0.00	30.531 
20:20	0.1	0.1	0.1	57	-11.5	0	2	248	0.00	30.531 
20:25	0.0	0.0	0.0	58	-11.2	0	2	248	0.00	30.531 
20:30	0.0	0.0	0.0	58	-11.2	0	1	248	0.00	30.527 
20:35	0.0	0.0	0.0	58	-11.2	0	2	248	0.00	30.527 
20:40	0.0	0.0	0.0	58	-11.2	0	4	248	0.00	30.527 
20:45	0.0	0.0	0.0	58	-11.2	0	3	248	0.00	30.524 
20:50	0.0	0.0	0.0	58	-11.2	0	4	248	0.00	30.524 
20:55	0.0	0.0	0.0	58	-11.2	0	4	248	0.00	30.524 
21:00	0.1	0.1	0.1	58	-11.1	0	3	248	0.00	30.522 
21:05	0.1	0.1	0.1	57	-11.5	0	2	248	0.00	30.522 
21:10	0.1	0.1	0.1	57	-11.5	0	3	248	0.00	30.522 
21:15	0.3	0.3	0.3	57	-11.3	1	3	248	0.00	30.509 
21:20	0.1	0.1	0.1	57	-11.5	0	2	225	0.00	30.509 
21:25	0.1	0.1	0.1	57	-11.5	0	5	248	0.00	30.509 
21:30	0.1	0.1	0.1	57	-11.5	0	2	248	0.00	30.504 
21:35	0.1	0.1	0.1	57	-11.5	1	7	248	0.00	30.504 
21:40	0.1	0.1	0.1	57	-11.5	0	3	248	0.00	30.504 
21:45	0.1	0.1	0.1	57	-11.5	0	2	248	0.00	30.501 
21:50	0.1	0.1	0.1	57	-11.5	1	4	248	0.00	30.501 
21:55	0.1	0.1	0.1	57	-11.5	0	3	248	0.00	30.501 
22:00	0.1	0.1	0.1	57	-11.5	0	3	248	0.00	30.499 
22:05	0.1	0.1	0.1	56	-11.8	0	2	248	0.00	30.499 
22:10	0.1	0.1	0.1	56	-11.8	0	2	248	0.00	30.499 
22:15	0.0	0.0	0.0	57	-11.6	0	1	248	0.00	30.491 
22:20	0.0	0.0	0.0	57	-11.6	0	3	248	0.00	30.491 
22:25	0.0	0.0	0.0	57	-11.6	0	2	248	0.00	30.491 
22:30	0.0	0.0	0.0	57	-11.6	0	2	248	0.00	30.488 
22:35	0.0	0.0	0.0	57	-11.6	1	3	248	0.00	30.488 
22:40	0.0	0.0	0.0	57	-11.6	1	3	248	0.00	30.488 
22:45	-0.2	-0.2	-0.2	57	-11.8	0	2	248	0.00	30.488 
22:50	-0.2	-0.2	-0.2	58	-11.4	0	2	248	0.00	30.488 
22:55	-0.2	-0.2	-0.2	58	-11.4	0	2	248	0.00	30.488 
23:00	0.0	0.0	0.0	58	-11.2	1	4	248	0.00	30.482 
23:05	-0.2	-0.2	-0.2	58	-11.4	0	1	248	0.00	30.482 
23:10	-0.2	-0.2	-0.2	58	-11.4	0	2	248	0.00	30.482 
23:15	-0.2	-0.2	-0.2	58	-11.4	0	2	248	0.00	30.474 
23:20	-0.2	-0.2	-0.2	58	-11.4	0	2	248	0.00	30.474 
23:25	-0.2	-0.2	-0.2	58	-11.4	0	3	248	0.00	30.474 
23:30	-0.2	-0.2	-0.2	58	-11.4	0	2	248	0.00	30.472 
23:35	-0.2	-0.2	-0.2	58	-11.4	0	1	248	0.00	30.472 
23:40	-0.2	-0.2	-0.2	58	-11.4	0	2	248	0.00	30.472 
23:45	-0.4	-0.4	-0.4	58	-11.6	0	3	248	0.00	30.471 
23:50	-0.2	-0.2	-0.2	58	-11.4	0	2	248	0.00	30.471 
23:55	-0.2	-0.2	-0.2	57	-11.8	0	1	248	0.00	30.471 

CoCoRaHS
IN-AL-39
A2 Web Hosting
Creative Commons License
GoDaddy
Look for:

loaded 2017-10-18 22:02:18 • last modified 2010-11-18 10:43:29
Privacy PolicyDisclaimer
• wx.awcolley.com is powered by PmWiki v.2002016 •
• all content (unless otherwise noted) © 2017 A W Colley